Time;durP1;ratioP1;P1;durP2;ratioP2;P2;SDS_P1;SDS_P2;PMS_P1;PMS_P2;Temp;Humidity;BMP_temperature;BMP_pressure;BME280_temperature;BME280_humidity;BME280_pressure;Samples;Min_cycle;Max_cycle;Signal;HPM_P1;HPM_P2
2022/04/10 00:00:40;;;;;;;4.50;1.95;;;3.90;99.90;;;;;;5047344;28;20579;-41
2022/04/10 00:03:06;;;;;;;5.20;1.92;;;3.90;99.90;;;;;;5047549;28;20060;-42
2022/04/10 00:05:32;;;;;;;6.90;2.17;;;3.80;99.90;;;;;;5047913;28;20056;-42
2022/04/10 00:07:57;;;;;;;5.60;1.88;;;3.80;99.90;;;;;;5047419;28;20067;-42
2022/04/10 00:10:23;;;;;;;8.02;2.33;;;3.80;99.90;;;;;;5047620;28;20051;-41
2022/04/10 00:12:48;;;;;;;6.25;2.10;;;3.80;99.90;;;;;;5047354;28;20055;-41
2022/04/10 00:15:14;;;;;;;5.70;2.10;;;3.80;99.90;;;;;;5047724;28;20083;-42
2022/04/10 00:17:41;;;;;;;4.03;2.10;;;3.70;99.90;;;;;;5047504;28;20048;-41
2022/04/10 00:20:16;;;;;;;7.40;1.98;;;3.70;99.90;;;;;;5047784;28;20029;-41
2022/04/10 00:22:42;;;;;;;3.10;1.70;;;3.70;99.90;;;;;;5047254;28;20179;-43
2022/04/10 00:25:12;;;;;;;4.78;2.00;;;3.70;99.90;;;;;;5047396;28;20021;-41
2022/04/10 00:27:39;;;;;;;4.47;1.60;;;3.70;99.90;;;;;;5037522;28;20029;-42
2022/04/10 00:30:06;;;;;;;4.80;1.98;;;3.60;99.90;;;;;;5046539;28;20032;-43
2022/04/10 00:32:32;;;;;;;6.00;2.00;;;3.60;99.90;;;;;;5047990;28;20159;-44
2022/04/10 00:34:57;;;;;;;4.93;1.50;;;3.60;99.90;;;;;;5047092;28;20132;-43
2022/04/10 00:37:23;;;;;;;5.93;1.60;;;3.50;99.90;;;;;;5046684;28;20029;-42
2022/04/10 00:39:48;;;;;;;3.55;1.63;;;3.50;99.90;;;;;;5047165;28;20033;-39
2022/04/10 00:42:14;;;;;;;4.15;1.58;;;3.50;99.90;;;;;;5047072;28;20086;-42
2022/04/10 00:44:39;;;;;;;3.17;1.58;;;3.50;99.90;;;;;;5046884;28;20534;-41
2022/04/10 00:47:05;;;;;;;5.05;1.50;;;3.50;99.90;;;;;;5046754;28;20060;-40
2022/04/10 00:49:31;;;;;;;6.05;1.45;;;3.50;99.90;;;;;;5046939;28;20025;-42
2022/04/10 00:51:58;;;;;;;3.90;1.98;;;3.50;99.90;;;;;;5046101;28;20079;-42
2022/04/10 00:54:25;;;;;;;3.42;1.60;;;3.50;99.90;;;;;;5047501;28;20032;-42
2022/04/10 00:56:55;;;;;;;4.72;1.73;;;3.40;99.90;;;;;;5046233;28;20072;-41
2022/04/10 00:59:21;;;;;;;5.45;1.98;;;3.40;99.90;;;;;;5046729;28;20029;-41
2022/04/10 01:01:47;;;;;;;5.10;1.80;;;3.40;99.90;;;;;;5046528;28;20017;-41
2022/04/10 01:04:14;;;;;;;5.55;1.73;;;3.40;99.90;;;;;;5046685;28;20036;-41
2022/04/10 01:06:40;;;;;;;5.22;2.03;;;3.30;99.90;;;;;;5045524;28;20043;-42
2022/04/10 01:09:06;;;;;;;3.97;2.00;;;3.40;99.90;;;;;;5047022;28;20453;-41
2022/04/10 01:11:35;;;;;;;5.32;1.52;;;3.30;99.90;;;;;;5046475;28;20037;-40
2022/04/10 01:14:04;;;;;;;7.82;1.95;;;3.30;99.90;;;;;;5045829;28;20078;-42
2022/04/10 01:16:31;;;;;;;3.60;2.55;;;3.30;99.90;;;;;;5046654;28;20392;-42
2022/04/10 01:18:57;;;;;;;7.05;1.80;;;3.30;99.90;;;;;;5046014;28;20028;-42
2022/04/10 01:21:25;;;;;;;5.75;1.70;;;3.30;99.90;;;;;;5046410;28;20577;-40
2022/04/10 01:23:52;;;;;;;6.97;1.80;;;3.30;99.90;;;;;;5045766;28;20473;-42
2022/04/10 01:26:17;;;;;;;6.25;2.08;;;3.30;99.90;;;;;;5046169;28;20044;-40
2022/04/10 01:29:03;;;;;;;4.43;1.95;;;3.30;99.90;;;;;;5045730;28;20424;-42
2022/04/10 01:31:31;;;;;;;5.22;1.80;;;3.30;99.90;;;;;;5046823;28;20108;-42
2022/04/10 01:34:00;;;;;;;3.97;1.60;;;3.20;99.90;;;;;;5045334;28;20056;-42
2022/04/10 01:36:27;;;;;;;4.82;1.63;;;3.20;99.90;;;;;;5046277;28;20059;-41
2022/04/10 01:38:55;;;;;;;2.90;1.40;;;3.20;99.90;;;;;;5045539;28;20047;-42
2022/04/10 01:41:21;;;;;;;4.90;2.10;;;3.20;99.90;;;;;;5045899;28;20041;-42
2022/04/10 01:43:48;;;;;;;6.57;1.70;;;3.20;99.90;;;;;;5045441;28;20039;-42
2022/04/10 01:46:14;;;;;;;5.97;1.80;;;3.20;99.90;;;;;;5046334;28;20025;-42
2022/04/10 01:48:41;;;;;;;5.00;1.60;;;3.20;99.90;;;;;;5045265;28;20526;-41
2022/04/10 01:51:07;;;;;;;7.43;1.83;;;3.20;99.90;;;;;;5045946;28;20408;-40
2022/04/10 01:53:34;;;;;;;7.18;1.85;;;3.10;99.90;;;;;;5046018;28;20563;-43
2022/04/10 01:56:00;;;;;;;4.65;1.48;;;3.10;99.90;;;;;;5045564;28;20033;-44
2022/04/10 01:58:26;;;;;;;7.13;1.83;;;3.00;99.90;;;;;;5045708;28;20460;-42
2022/04/10 02:00:51;;;;;;;6.20;1.88;;;3.00;99.90;;;;;;5046045;28;20029;-42
2022/04/10 02:03:17;;;;;;;4.95;2.72;;;3.00;99.90;;;;;;5045483;28;20065;-42
2022/04/10 02:05:42;;;;;;;4.93;1.80;;;2.90;99.90;;;;;;5045455;28;20075;-42
2022/04/10 02:08:08;;;;;;;4.28;2.05;;;2.90;99.90;;;;;;5046218;28;20033;-42
2022/04/10 02:10:34;;;;;;;5.07;1.90;;;2.90;99.90;;;;;;5045175;28;20029;-40
2022/04/10 02:13:00;;;;;;;3.97;1.80;;;2.80;99.90;;;;;;5043916;28;20468;-43
2022/04/10 02:15:31;;;;;;;7.93;1.95;;;2.80;99.90;;;;;;5044985;28;20507;-41
2022/04/10 02:17:57;;;;;;;6.80;2.30;;;2.80;99.90;;;;;;5045116;28;20113;-43
2022/04/10 02:20:22;;;;;;;4.40;1.92;;;2.80;99.90;;;;;;5045868;28;20111;-40
2022/04/10 02:22:52;;;;;;;5.20;2.22;;;2.70;99.90;;;;;;5044597;28;20578;-41
2022/04/10 02:25:18;;;;;;;5.10;2.28;;;2.70;99.90;;;;;;5045560;28;20025;-41
2022/04/10 02:27:43;;;;;;;5.28;2.20;;;2.70;99.90;;;;;;5044919;28;20512;-42
2022/04/10 02:30:10;;;;;;;4.45;2.35;;;2.70;99.90;;;;;;5045229;28;20033;-43
2022/04/10 02:32:36;;;;;;;5.80;2.47;;;2.70;99.90;;;;;;5045720;28;20531;-43
2022/04/10 02:35:02;;;;;;;5.35;2.60;;;2.70;99.90;;;;;;5044910;28;20099;-41
2022/04/10 02:37:27;;;;;;;7.05;2.63;;;2.70;99.90;;;;;;5045329;28;20021;-42
2022/04/10 02:39:52;;;;;;;5.10;2.88;;;2.70;99.90;;;;;;5044797;28;20025;-42
2022/04/10 02:42:18;;;;;;;5.85;2.40;;;2.70;99.90;;;;;;5045393;28;20616;-43
2022/04/10 02:44:43;;;;;;;6.15;2.75;;;2.70;99.90;;;;;;5044734;28;20021;-41
2022/04/10 02:47:09;;;;;;;6.13;2.20;;;2.80;99.90;;;;;;5045479;28;20659;-40
2022/04/10 02:49:34;;;;;;;6.45;2.33;;;2.70;99.90;;;;;;5045226;28;20028;-39
2022/04/10 02:52:00;;;;;;;4.43;2.38;;;2.80;99.90;;;;;;5044476;28;20120;-41
2022/04/10 02:54:26;;;;;;;7.35;2.50;;;2.80;99.90;;;;;;5045440;28;20032;-42
2022/04/10 02:56:51;;;;;;;5.57;2.42;;;2.80;99.90;;;;;;5044517;28;20469;-43
2022/04/10 02:59:17;;;;;;;4.90;1.80;;;2.80;99.90;;;;;;5044903;28;20720;-42
2022/04/10 03:01:42;;;;;;;6.43;2.22;;;2.70;99.90;;;;;;5044376;28;20033;-41
2022/04/10 03:04:07;;;;;;;6.00;3.00;;;2.80;99.90;;;;;;5045196;28;20701;-41
2022/04/10 03:06:33;;;;;;;5.20;2.47;;;2.80;99.90;;;;;;5044831;28;20017;-40
2022/04/10 03:08:59;;;;;;;6.25;2.38;;;2.80;99.90;;;;;;5044498;28;20357;-42
2022/04/10 03:11:25;;;;;;;5.10;2.00;;;2.80;99.90;;;;;;5045170;28;20017;-41
2022/04/10 03:13:51;;;;;;;10.23;3.38;;;2.70;99.90;;;;;;5044442;28;20087;-41
2022/04/10 03:16:16;;;;;;;9.57;3.53;;;2.70;99.90;;;;;;5044810;28;20643;-41
2022/04/10 03:18:42;;;;;;;5.55;2.83;;;2.70;99.90;;;;;;5044183;28;20032;-39
2022/04/10 03:21:08;;;;;;;6.15;2.72;;;2.70;99.90;;;;;;5045013;28;20032;-38
2022/04/10 03:23:34;;;;;;;6.85;3.03;;;2.70;99.90;;;;;;5045048;28;20014;-42
2022/04/10 03:25:59;;;;;;;6.35;2.50;;;2.70;99.90;;;;;;5043996;28;20660;-40
2022/04/10 03:28:25;;;;;;;8.15;3.15;;;2.70;99.90;;;;;;5044646;28;20013;-41
2022/04/10 03:30:50;;;;;;;8.65;3.10;;;2.70;99.90;;;;;;5046634;28;20029;-41
2022/04/10 03:33:16;;;;;;;5.43;2.92;;;2.60;99.90;;;;;;5048756;28;20033;-41
2022/04/10 03:35:41;;;;;;;7.65;3.25;;;2.60;99.90;;;;;;5048902;28;20472;-42
2022/04/10 03:38:07;;;;;;;7.30;3.20;;;2.50;99.90;;;;;;5048344;28;20021;-42
2022/04/10 03:40:32;;;;;;;5.18;2.78;;;2.50;99.90;;;;;;5048449;28;20726;-41
2022/04/10 03:42:58;;;;;;;9.85;2.75;;;2.50;99.90;;;;;;5048109;28;20029;-41
2022/04/10 03:45:24;;;;;;;6.93;2.75;;;2.50;99.90;;;;;;5048753;28;20036;-40
2022/04/10 03:47:49;;;;;;;7.03;2.40;;;2.40;99.90;;;;;;5047402;28;20143;-38
2022/04/10 03:50:15;;;;;;;6.72;2.67;;;2.40;99.90;;;;;;5048583;28;20021;-42
2022/04/10 03:52:40;;;;;;;4.50;2.78;;;2.40;99.90;;;;;;5048262;28;20376;-43
2022/04/10 03:55:06;;;;;;;7.63;2.50;;;2.40;99.90;;;;;;5047899;28;20059;-41
2022/04/10 03:57:31;;;;;;;5.32;2.35;;;2.40;99.90;;;;;;5048147;28;20060;-40
2022/04/10 03:59:57;;;;;;;6.07;3.00;;;2.30;99.90;;;;;;5047801;28;20025;-43
2022/04/10 04:02:23;;;;;;;3.80;1.92;;;2.30;99.90;;;;;;5048055;28;20388;-39
2022/04/10 04:04:50;;;;;;;3.88;2.20;;;2.30;99.90;;;;;;5047503;28;20032;-41
2022/04/10 04:07:16;;;;;;;4.85;2.05;;;2.30;99.90;;;;;;5048269;28;20404;-44
2022/04/10 04:09:41;;;;;;;3.13;2.08;;;2.30;99.90;;;;;;5047418;28;20025;-43
2022/04/10 04:12:08;;;;;;;3.72;2.10;;;2.30;99.90;;;;;;5048756;28;20055;-42
2022/04/10 04:14:34;;;;;;;4.70;1.98;;;2.20;99.90;;;;;;5048571;28;20428;-45
2022/04/10 04:17:00;;;;;;;11.25;3.35;;;2.20;99.90;;;;;;5046626;28;20488;-42
2022/04/10 04:19:25;;;;;;;8.13;2.90;;;2.20;99.90;;;;;;5047863;28;20056;-40
2022/04/10 04:21:51;;;;;;;7.70;2.65;;;2.20;99.90;;;;;;5047255;28;20465;-40
2022/04/10 04:24:16;;;;;;;4.93;2.05;;;2.30;99.90;;;;;;5047103;28;20043;-41
2022/04/10 04:26:42;;;;;;;6.60;2.38;;;2.40;99.90;;;;;;5047487;28;20036;-42
2022/04/10 04:29:07;;;;;;;6.20;2.17;;;2.40;99.90;;;;;;5046938;28;20049;-41
2022/04/10 04:31:33;;;;;;;6.15;2.35;;;2.50;99.90;;;;;;5048453;28;20478;-43
2022/04/10 04:33:58;;;;;;;5.22;2.20;;;2.50;99.90;;;;;;5046743;28;20017;-42
2022/04/10 04:36:23;;;;;;;4.93;2.25;;;2.50;99.90;;;;;;5047246;28;20041;-41
2022/04/10 04:38:49;;;;;;;7.03;2.35;;;2.50;99.90;;;;;;5047191;28;20025;-42
2022/04/10 04:41:14;;;;;;;3.72;2.10;;;2.50;99.90;;;;;;5047420;28;20075;-41
2022/04/10 04:43:40;;;;;;;5.93;2.25;;;2.50;99.90;;;;;;5046844;28;20056;-42
2022/04/10 04:46:05;;;;;;;3.42;2.28;;;2.50;99.90;;;;;;5047475;28;20029;-42
2022/04/10 04:48:31;;;;;;;4.97;2.08;;;2.50;99.90;;;;;;5047505;28;20108;-40
2022/04/10 04:50:57;;;;;;;4.28;1.90;;;2.50;99.90;;;;;;5046525;28;20033;-41
2022/04/10 04:53:22;;;;;;;3.15;2.03;;;2.50;99.90;;;;;;5047300;28;20029;-40
2022/04/10 04:55:48;;;;;;;5.35;2.00;;;2.50;99.90;;;;;;5046684;28;20037;-41
2022/04/10 04:58:13;;;;;;;5.40;2.35;;;2.40;99.90;;;;;;5046697;28;20143;-43
2022/04/10 05:00:39;;;;;;;4.75;2.05;;;2.40;99.90;;;;;;5047171;28;20357;-42
2022/04/10 05:03:04;;;;;;;5.53;2.10;;;2.40;99.90;;;;;;5046847;28;20033;-42
2022/04/10 05:05:30;;;;;;;3.67;1.98;;;2.40;99.90;;;;;;5046549;28;20468;-41
2022/04/10 05:07:56;;;;;;;4.53;1.67;;;2.40;99.90;;;;;;5046796;28;20036;-42
2022/04/10 05:10:21;;;;;;;5.85;1.95;;;2.40;99.90;;;;;;5046697;28;20029;-42
2022/04/10 05:12:47;;;;;;;4.13;1.80;;;2.40;99.90;;;;;;5046065;28;20107;-42
2022/04/10 05:15:15;;;;;;;3.45;2.13;;;2.40;99.90;;;;;;5047056;28;20875;-41
2022/04/10 05:17:40;;;;;;;4.28;1.90;;;2.40;99.90;;;;;;5046071;28;20108;-42
2022/04/10 05:20:07;;;;;;;3.88;1.90;;;2.40;99.90;;;;;;5046021;28;20105;-42
2022/04/10 05:22:33;;;;;;;3.55;2.17;;;2.40;99.90;;;;;;5046891;28;20056;-41
2022/04/10 05:24:58;;;;;;;5.00;2.10;;;2.50;99.90;;;;;;5045961;28;20017;-42
2022/04/10 05:27:25;;;;;;;4.95;2.08;;;2.50;99.90;;;;;;5046620;28;20032;-42
2022/04/10 05:29:50;;;;;;;3.85;2.08;;;2.50;99.90;;;;;;5046337;28;20044;-44
2022/04/10 05:32:16;;;;;;;5.45;2.00;;;2.50;99.90;;;;;;5046450;28;20020;-41
2022/04/10 05:34:42;;;;;;;4.40;2.08;;;2.50;99.90;;;;;;5045817;28;20428;-42
2022/04/10 05:37:07;;;;;;;4.13;1.90;;;2.50;99.90;;;;;;5046203;28;20037;-41
2022/04/10 05:39:33;;;;;;;3.30;1.88;;;2.50;99.90;;;;;;5045907;28;20143;-43
2022/04/10 05:41:58;;;;;;;3.22;1.88;;;2.50;99.90;;;;;;5045946;28;20079;-42
2022/04/10 05:44:24;;;;;;;3.00;2.10;;;2.50;99.90;;;;;;5046363;28;20025;-43
2022/04/10 05:46:49;;;;;;;5.20;2.40;;;2.50;99.90;;;;;;5045171;28;20272;-41
2022/04/10 05:49:16;;;;;;;3.85;1.80;;;2.50;99.90;;;;;;5046510;28;20033;-44
2022/04/10 05:51:41;;;;;;;4.47;2.20;;;2.50;99.90;;;;;;5045105;28;20087;-41
2022/04/10 05:54:07;;;;;;;3.80;1.95;;;2.50;99.90;;;;;;5045315;28;20060;-40
2022/04/10 05:56:33;;;;;;;3.85;2.15;;;2.50;99.90;;;;;;5046222;28;20043;-42
2022/04/10 05:58:58;;;;;;;4.40;2.40;;;2.50;99.90;;;;;;5044929;28;20601;-43
2022/04/10 06:01:24;;;;;;;4.68;2.15;;;2.60;99.90;;;;;;5045997;28;20123;-43
2022/04/10 06:03:49;;;;;;;3.75;2.22;;;2.60;99.90;;;;;;5045686;28;20495;-42
2022/04/10 06:06:15;;;;;;;4.55;1.95;;;2.60;99.90;;;;;;5045538;28;20033;-42
2022/04/10 06:08:40;;;;;;;4.55;2.08;;;2.70;99.90;;;;;;5045523;28;20045;-42
2022/04/10 06:11:06;;;;;;;4.15;2.28;;;2.70;99.90;;;;;;5045884;28;20029;-40
2022/04/10 06:13:32;;;;;;;6.30;2.50;;;2.70;99.90;;;;;;5045284;28;20412;-43
2022/04/10 06:15:57;;;;;;;4.68;2.58;;;2.70;99.90;;;;;;5045029;28;20047;-42
2022/04/10 06:18:23;;;;;;;5.05;2.88;;;2.80;99.90;;;;;;5045494;28;20108;-42
2022/04/10 06:20:51;;;;;;;4.57;2.45;;;2.80;99.90;;;;;;5044607;28;20477;-42
2022/04/10 06:23:20;;;;;;;7.63;2.95;;;2.90;99.90;;;;;;5045754;28;20108;-42
2022/04/10 06:25:45;;;;;;;6.30;3.42;;;3.00;99.90;;;;;;5045053;28;20568;-41
2022/04/10 06:28:11;;;;;;;5.68;2.55;;;3.00;99.90;;;;;;5045360;28;20100;-41
2022/04/10 06:30:37;;;;;;;7.43;3.28;;;3.10;99.90;;;;;;5044104;28;20515;-42
2022/04/10 06:33:02;;;;;;;5.55;2.80;;;3.20;99.90;;;;;;5044651;28;20124;-42
2022/04/10 06:35:28;;;;;;;5.50;2.75;;;3.30;99.90;;;;;;5045142;28;20060;-42
2022/04/10 06:37:53;;;;;;;5.78;3.00;;;3.40;99.90;;;;;;5044615;28;20037;-40
2022/04/10 06:40:19;;;;;;;7.47;2.60;;;3.50;99.90;;;;;;5046016;28;20033;-39
2022/04/10 06:42:44;;;;;;;5.95;2.78;;;3.60;99.90;;;;;;5044490;28;20029;-42
2022/04/10 06:45:13;;;;;;;4.00;2.85;;;3.80;99.90;;;;;;5045640;28;20786;-41
2022/04/10 06:47:38;;;;;;;4.53;2.92;;;4.00;99.90;;;;;;5045203;28;20159;-40
2022/04/10 06:50:04;;;;;;;4.60;3.13;;;4.20;99.90;;;;;;5044186;28;20019;-43
2022/04/10 06:52:29;;;;;;;7.88;2.80;;;4.40;99.90;;;;;;5045761;28;20099;-43
2022/04/10 06:54:55;;;;;;;7.05;3.08;;;4.60;99.90;;;;;;5044291;28;20025;-42
2022/04/10 06:57:21;;;;;;;9.52;2.80;;;4.70;99.90;;;;;;5044301;28;20052;-42
2022/04/10 06:59:46;;;;;;;6.57;2.80;;;4.90;99.90;;;;;;5045023;28;20532;-40
2022/04/10 07:02:11;;;;;;;8.68;2.80;;;5.00;99.90;;;;;;5045489;28;20082;-43
2022/04/10 07:04:37;;;;;;;6.97;2.50;;;5.00;99.90;;;;;;5045411;28;20025;-40
2022/04/10 07:07:03;;;;;;;6.22;3.45;;;5.10;99.90;;;;;;5049023;28;20092;-40
2022/04/10 07:09:28;;;;;;;5.32;2.20;;;5.10;99.90;;;;;;5048647;28;20056;-42
2022/04/10 07:11:57;;;;;;;4.90;2.13;;;5.10;99.90;;;;;;5048345;28;20514;-42
2022/04/10 07:14:22;;;;;;;3.30;2.17;;;5.20;99.90;;;;;;5049446;28;20029;-41
2022/04/10 07:16:48;;;;;;;6.35;2.25;;;5.20;99.90;;;;;;5049213;28;20036;-40
2022/04/10 07:19:13;;;;;;;2.83;2.10;;;5.30;99.90;;;;;;5049024;28;20423;-41
2022/04/10 07:24:23;;;;;;;4.50;1.88;;;5.20;99.90;;;;;;5048716;28;20051;-42
2022/04/10 07:26:52;;;;;;;2.67;1.77;;;5.20;99.90;;;;;;5047856;28;20469;-39
2022/04/10 07:29:18;;;;;;;3.72;1.85;;;5.20;99.90;;;;;;5045868;28;20045;-39
2022/04/10 07:31:44;;;;;;;4.50;1.80;;;5.20;99.90;;;;;;5046104;28;20028;-42
2022/04/10 07:34:09;;;;;;;2.20;1.30;;;5.10;99.90;;;;;;5047078;28;20013;-42
2022/04/10 07:36:35;;;;;;;2.63;1.17;;;5.10;99.90;;;;;;5047545;28;20029;-41
2022/04/10 07:39:00;;;;;;;2.15;1.20;;;5.00;99.90;;;;;;5047435;28;20060;-42
2022/04/10 07:41:26;;;;;;;1.27;0.85;;;5.00;99.90;;;;;;5047479;28;20380;-42
2022/04/10 07:43:51;;;;;;;3.33;1.10;;;5.00;99.90;;;;;;5046601;28;20492;-39
2022/04/10 07:49:01;;;;;;;4.45;1.35;;;5.10;99.90;;;;;;5047782;28;20060;-42
2022/04/10 07:51:28;;;;;;;4.75;1.13;;;5.10;99.90;;;;;;5046918;28;20029;-40
2022/04/10 07:53:56;;;;;;;4.63;1.00;;;5.20;99.90;;;;;;5046677;28;20029;-43
2022/04/10 07:56:22;;;;;;;3.80;1.20;;;5.30;99.90;;;;;;5047206;28;20071;-41
2022/04/10 07:58:47;;;;;;;4.18;1.05;;;5.40;99.90;;;;;;5046671;28;20072;-39
2022/04/10 08:01:13;;;;;;;1.73;0.90;;;5.50;99.90;;;;;;5046671;28;20029;-41
2022/04/10 08:03:38;;;;;;;2.65;1.00;;;5.70;99.90;;;;;;5048066;28;20600;-42
2022/04/10 08:06:04;;;;;;;1.80;1.02;;;5.60;99.90;;;;;;5046291;28;20021;-42
2022/04/10 08:08:29;;;;;;;2.97;1.00;;;5.70;99.90;;;;;;5047013;28;20108;-43
2022/04/10 08:10:55;;;;;;;3.17;1.75;;;5.70;99.90;;;;;;5046964;28;20503;-42
2022/04/10 08:13:21;;;;;;;3.03;1.38;;;5.70;99.90;;;;;;5047478;28;20096;-43
2022/04/10 08:15:48;;;;;;;3.08;1.17;;;5.80;99.90;;;;;;5045957;28;20128;-43
2022/04/10 08:18:13;;;;;;;3.13;1.55;;;5.80;99.90;;;;;;5047984;28;20078;-41
2022/04/10 08:20:39;;;;;;;6.32;2.22;;;5.90;99.90;;;;;;5046369;28;20025;-42
2022/04/10 08:23:05;;;;;;;4.07;1.35;;;5.90;99.90;;;;;;5046478;28;20096;-41
2022/04/10 08:25:30;;;;;;;2.28;1.58;;;6.00;99.90;;;;;;5047004;28;20408;-43
2022/04/10 08:27:56;;;;;;;3.35;1.40;;;6.10;99.90;;;;;;5046321;28;20029;-41
2022/04/10 08:30:22;;;;;;;4.93;1.27;;;6.20;99.90;;;;;;5047182;28;20488;-42
2022/04/10 08:32:47;;;;;;;3.42;1.35;;;6.30;99.90;;;;;;5047574;28;20059;-42
2022/04/10 08:35:13;;;;;;;2.65;0.98;;;6.40;99.90;;;;;;5045989;28;20128;-41
2022/04/10 08:37:39;;;;;;;3.17;1.33;;;6.40;99.90;;;;;;5046751;28;20075;-38
2022/04/10 08:40:06;;;;;;;1.73;1.08;;;6.50;99.90;;;;;;5045461;28;20024;-43
2022/04/10 08:42:31;;;;;;;4.05;1.38;;;6.50;99.90;;;;;;5046025;28;20481;-42
2022/04/10 08:44:58;;;;;;;3.22;1.27;;;6.60;99.90;;;;;;5044584;28;20018;-41
2022/04/10 08:47:27;;;;;;;4.15;1.65;;;6.60;99.90;;;;;;5046583;28;20063;-42
2022/04/10 08:49:53;;;;;;;4.63;1.55;;;6.60;99.90;;;;;;5045601;28;20017;-42
2022/04/10 08:52:20;;;;;;;3.80;1.40;;;6.60;99.90;;;;;;5046547;28;20435;-42
2022/04/10 08:54:47;;;;;;;4.28;1.40;;;6.70;99.90;;;;;;5045665;28;20021;-41
2022/04/10 08:57:13;;;;;;;2.22;0.90;;;6.80;99.90;;;;;;5045632;28;20067;-42
2022/04/10 08:59:40;;;;;;;2.55;1.30;;;6.90;99.90;;;;;;5046298;28;20365;-43
2022/04/10 09:02:06;;;;;;;2.58;1.10;;;7.00;99.90;;;;;;5046088;28;20040;-42
2022/04/10 09:04:32;;;;;;;4.25;1.30;;;7.10;99.90;;;;;;5046594;28;20821;-42
2022/04/10 09:06:59;;;;;;;5.03;1.73;;;7.10;99.90;;;;;;5046642;28;20036;-43
2022/04/10 09:09:25;;;;;;;2.30;1.00;;;7.20;99.90;;;;;;5046920;28;20017;-42
2022/04/10 09:11:53;;;;;;;4.65;1.38;;;7.30;99.90;;;;;;5046073;28;20176;-42
2022/04/10 09:14:24;;;;;;;3.40;1.23;;;7.30;99.90;;;;;;5044452;28;20009;-43
2022/04/10 09:17:09;;;;;;;4.00;1.45;;;7.50;99.90;;;;;;5044783;28;20033;-41
2022/04/10 09:19:42;;;;;;;2.13;1.05;;;7.60;99.90;;;;;;5045771;28;20060;-44
2022/04/10 09:22:21;;;;;;;3.17;1.30;;;7.70;99.90;;;;;;5046267;28;20048;-41
2022/04/10 09:25:14;;;;;;;3.13;1.25;;;7.70;99.90;;;;;;5045749;28;20029;-44
2022/04/10 09:27:43;;;;;;;3.97;1.25;;;7.90;99.90;;;;;;5045239;28;20380;-41
2022/04/10 09:30:10;;;;;;;4.95;1.55;;;7.90;99.90;;;;;;5046390;28;20056;-42
2022/04/10 09:32:39;;;;;;;5.95;1.15;;;7.90;99.90;;;;;;5046209;28;20021;-43
2022/04/10 09:35:05;;;;;;;3.83;1.10;;;8.00;99.90;;;;;;5046165;28;20071;-43
2022/04/10 09:37:49;;;;;;;3.38;1.13;;;8.10;99.90;;;;;;5046229;28;20048;-43
2022/04/10 09:40:32;;;;;;;3.22;1.20;;;8.20;99.90;;;;;;5046076;28;20059;-43
2022/04/10 09:43:05;;;;;;;3.10;1.00;;;8.30;99.90;;;;;;5044805;28;20029;-43
2022/04/10 09:45:41;;;;;;;3.00;1.00;;;8.40;99.90;;;;;;5046108;28;20052;-43
2022/04/10 09:48:27;;;;;;;3.63;1.17;;;8.50;99.90;;;;;;5046257;28;20021;-43
2022/04/10 09:50:58;;;;;;;4.72;1.00;;;8.50;99.90;;;;;;5044341;28;20109;-42
2022/04/10 09:53:24;;;;;;;5.75;1.15;;;8.50;98.80;;;;;;5046151;28;20064;-43
2022/04/10 09:55:57;;;;;;;2.22;1.10;;;8.50;98.80;;;;;;5045726;28;20526;-42
2022/04/10 09:58:24;;;;;;;2.00;0.80;;;8.60;99.60;;;;;;5045902;28;20045;-43
2022/04/10 10:00:56;;;;;;;3.63;0.90;;;8.70;99.90;;;;;;5044738;28;20074;-43
2022/04/10 10:03:24;;;;;;;3.10;0.98;;;8.90;99.90;;;;;;5046278;28;20025;-42
2022/04/10 10:05:51;;;;;;;6.00;1.85;;;9.00;99.90;;;;;;5045409;28;20075;-41
2022/04/10 10:08:17;;;;;;;2.75;1.10;;;9.10;99.00;;;;;;5045914;28;20108;-42
2022/04/10 10:10:42;;;;;;;3.15;1.23;;;9.10;99.20;;;;;;5044935;28;20777;-42
2022/04/10 10:13:08;;;;;;;4.68;1.00;;;9.20;99.60;;;;;;5045941;28;20123;-41
2022/04/10 10:15:38;;;;;;;4.65;1.30;;;9.30;99.60;;;;;;5045681;28;20226;-42
2022/04/10 10:18:09;;;;;;;5.22;1.10;;;9.30;97.60;;;;;;5045279;28;20036;-42
2022/04/10 10:20:40;;;;;;;1.90;0.80;;;9.30;98.40;;;;;;5046018;28;20036;-43
2022/04/10 10:23:11;;;;;;;3.75;1.05;;;9.20;98.80;;;;;;5045368;28;20095;-42
2022/04/10 10:26:04;;;;;;;3.42;1.27;;;9.20;98.90;;;;;;5045581;28;20047;-41
2022/04/10 10:28:55;;;;;;;2.58;0.98;;;9.20;98.10;;;;;;5045620;28;20389;-43
2022/04/10 10:31:36;;;;;;;4.47;1.42;;;9.20;98.30;;;;;;5045987;28;20021;-41
2022/04/10 10:34:06;;;;;;;4.28;0.90;;;9.30;98.40;;;;;;5045272;28;20037;-39
2022/04/10 10:36:31;;;;;;;2.70;0.75;;;9.30;98.10;;;;;;5044895;28;20044;-45
2022/04/10 10:38:58;;;;;;;1.77;0.80;;;9.40;98.40;;;;;;5045138;28;20033;-43
2022/04/10 10:41:24;;;;;;;2.72;0.98;;;9.50;96.40;;;;;;5045293;28;20116;-39
2022/04/10 10:43:50;;;;;;;1.42;1.00;;;9.50;96.90;;;;;;5044955;28;20132;-42
2022/04/10 10:46:23;;;;;;;1.38;0.82;;;9.60;97.10;;;;;;5044342;28;20060;-41
2022/04/10 10:49:10;;;;;;;3.30;1.40;;;9.70;97.30;;;;;;5043183;28;20124;-40
2022/04/10 10:51:35;;;;;;;4.80;0.98;;;9.70;97.10;;;;;;5043363;28;20037;-43
2022/04/10 10:54:01;;;;;;;1.55;0.60;;;9.70;95.30;;;;;;5043062;28;20113;-42
2022/04/10 10:56:31;;;;;;;1.33;0.60;;;9.70;95.60;;;;;;5043787;28;20124;-42
2022/04/10 10:59:20;;;;;;;3.05;1.00;;;9.60;95.90;;;;;;5044023;28;20220;-41
2022/04/10 11:01:51;;;;;;;2.47;0.82;;;9.70;94.70;;;;;;5030837;28;20502;-42
2022/04/10 11:04:19;;;;;;;1.98;0.60;;;9.80;94.30;;;;;;5045277;28;20071;-41
2022/04/10 11:06:50;;;;;;;3.67;0.73;;;9.80;94.10;;;;;;5045094;28;20107;-43
2022/04/10 11:09:28;;;;;;;3.58;0.80;;;9.90;93.90;;;;;;5045166;28;20025;-41
2022/04/10 11:11:56;;;;;;;2.10;1.08;;;10.00;93.00;;;;;;5044020;28;20006;-40
2022/04/10 11:14:38;;;;;;;3.33;1.00;;;10.10;91.00;;;;;;5045269;28;20155;-43
2022/04/10 11:17:20;;;;;;;1.80;1.10;;;10.10;91.60;;;;;;5044364;28;20109;-42
2022/04/10 11:19:48;;;;;;;3.15;0.75;;;10.20;92.10;;;;;;5045190;28;20108;-41
2022/04/10 11:22:23;;;;;;;2.72;0.80;;;10.30;92.80;;;;;;5044990;28;20041;-42
2022/04/10 11:24:53;;;;;;;4.07;0.90;;;10.40;92.90;;;;;;5043793;28;20700;-41
2022/04/10 11:27:49;;;;;;;1.88;0.70;;;10.40;90.40;;;;;;5045580;28;20028;-42
2022/04/10 11:30:24;;;;;;;3.42;0.80;;;10.30;91.10;;;;;;5045286;28;20029;-42
2022/04/10 11:32:58;;;;;;;1.70;0.70;;;10.20;87.60;;;;;;5043955;28;20083;-42
2022/04/10 11:35:29;;;;;;;1.25;0.52;;;10.30;88.10;;;;;;5045058;28;20025;-40
2022/04/10 11:37:57;;;;;;;2.17;0.98;;;10.40;90.00;;;;;;5044413;28;20422;-43
2022/04/10 11:40:33;;;;;;;3.17;0.70;;;10.50;89.00;;;;;;5044808;28;20036;-42
2022/04/10 11:43:00;;;;;;;2.17;0.80;;;10.60;90.00;;;;;;5043994;28;20044;-43
2022/04/10 11:45:28;;;;;;;1.70;0.82;;;10.60;89.00;;;;;;5044783;28;20025;-41
2022/04/10 11:47:53;;;;;;;1.38;0.60;;;10.60;90.10;;;;;;5044462;28;20029;-43
2022/04/10 11:50:21;;;;;;;1.02;0.50;;;10.60;90.10;;;;;;5045042;28;20373;-43
2022/04/10 11:53:01;;;;;;;3.72;0.70;;;10.70;89.70;;;;;;5047715;28;20499;-42
2022/04/10 11:55:38;;;;;;;0.70;0.47;;;10.80;89.50;;;;;;5048941;28;20028;-43
2022/04/10 11:58:16;;;;;;;1.40;0.75;;;10.90;90.10;;;;;;5047774;28;20072;-46
2022/04/10 12:00:58;;;;;;;2.75;1.15;;;11.00;90.00;;;;;;5047891;28;20052;-42
2022/04/10 12:03:26;;;;;;;2.53;0.90;;;11.10;90.30;;;;;;5047971;28;20029;-42
2022/04/10 12:05:52;;;;;;;2.85;0.90;;;11.30;89.80;;;;;;5047619;28;20029;-41
2022/04/10 12:08:19;;;;;;;2.30;0.98;;;11.40;89.90;;;;;;5048254;28;20056;-42
2022/04/10 12:10:52;;;;;;;2.13;1.10;;;11.40;90.10;;;;;;5047079;28;20164;-42
2022/04/10 12:13:18;;;;;;;2.28;0.88;;;11.40;90.00;;;;;;5047568;28;20376;-42
2022/04/10 12:15:43;;;;;;;1.45;0.70;;;11.40;90.40;;;;;;5047565;28;20539;-43
2022/04/10 12:18:12;;;;;;;3.35;1.00;;;11.30;90.60;;;;;;5047990;28;20169;-43
2022/04/10 12:20:44;;;;;;;1.52;0.70;;;11.30;91.00;;;;;;5047945;28;20025;-42
2022/04/10 12:23:24;;;;;;;2.75;0.90;;;11.30;91.40;;;;;;5047941;28;20029;-42
2022/04/10 12:25:51;;;;;;;1.63;0.50;;;11.30;91.70;;;;;;5046769;28;20083;-42
2022/04/10 12:28:18;;;;;;;1.92;0.82;;;11.10;86.50;;;;;;5047408;28;20472;-42
2022/04/10 12:30:44;;;;;;;3.47;0.90;;;11.00;89.20;;;;;;5047488;28;20108;-43
2022/04/10 12:33:11;;;;;;;1.63;0.70;;;10.90;88.70;;;;;;5047653;28;20443;-42
2022/04/10 12:35:38;;;;;;;2.53;0.57;;;10.90;86.70;;;;;;5047369;28;20043;-42
2022/04/10 12:38:04;;;;;;;2.33;0.77;;;10.90;88.30;;;;;;5033118;28;20091;-42
2022/04/10 12:40:30;;;;;;;2.65;1.00;;;11.00;88.80;;;;;;5039810;28;20029;-43
2022/04/10 12:43:00;;;;;;;3.88;0.73;;;11.20;88.70;;;;;;5047226;28;20029;-42
2022/04/10 12:45:30;;;;;;;3.30;0.93;;;11.40;89.20;;;;;;5046631;28;20476;-41
2022/04/10 12:47:56;;;;;;;1.85;0.70;;;11.60;88.90;;;;;;5047158;28;20156;-42
2022/04/10 12:50:23;;;;;;;1.70;0.65;;;11.70;88.90;;;;;;5046960;28;20104;-42
2022/04/10 12:52:52;;;;;;;2.63;0.80;;;11.90;88.90;;;;;;5046337;28;20056;-41
2022/04/10 12:55:23;;;;;;;2.20;0.63;;;11.90;88.50;;;;;;5047197;28;20390;-42
2022/04/10 12:58:07;;;;;;;2.72;0.77;;;12.10;88.20;;;;;;5046330;28;20497;-41
2022/04/10 13:00:43;;;;;;;1.95;0.70;;;12.20;87.80;;;;;;5047227;28;20025;-40
2022/04/10 13:03:29;;;;;;;2.63;1.17;;;12.20;87.20;;;;;;5044744;28;20036;-40